Fairfield, Kentucky
Current Conditions -  °F | °C
As of 11:56 AM on Thursday 30 Oct 2014 (Local Time) from KSDF Reporting Station
Few Clouds Few Clouds  
Wind Chill: 50°   Ceiling: Unl
Heat Index: 50°   Visibility: 10mi
Dew Point: 35°   Wind: 3mph
Humidity: 57%   Direction: 170°S
Pressure: 30.17"   Gusts: NA
Location:  37.93°N, 85.38°W
Report Text: KSDF 301556Z 17003KT 10SM FEW035 10/02 A3017 RMK AO2 SLP216 T01000017
Loading
Personal Weather Stations






























Interactive Weather Map
Tropical Storm Tracking
New forecast layout! Learn more

10-Day Weather Forecast

Advertisements
Track Severe Weather on mobile